sensor_id;sensor_type;location;lat;lon;timestamp;P1;durP1;ratioP1;P2;durP2;ratioP2
2998;SDS011;1509;51.964;7.628;2022-12-16T00:00:21;45.53;;;27.00;;
2998;SDS011;1509;51.964;7.628;2022-12-16T00:02:47;51.70;;;29.90;;
2998;SDS011;1509;51.964;7.628;2022-12-16T00:05:13;43.27;;;28.27;;
2998;SDS011;1509;51.964;7.628;2022-12-16T00:07:39;46.93;;;30.63;;
2998;SDS011;1509;51.964;7.628;2022-12-16T00:10:05;50.57;;;28.87;;
2998;SDS011;1509;51.964;7.628;2022-12-16T00:12:31;50.83;;;29.67;;
2998;SDS011;1509;51.964;7.628;2022-12-16T00:14:57;47.13;;;28.30;;
2998;SDS011;1509;51.964;7.628;2022-12-16T00:17:22;46.37;;;29.20;;
2998;SDS011;1509;51.964;7.628;2022-12-16T00:19:48;42.00;;;30.00;;
2998;SDS011;1509;51.964;7.628;2022-12-16T00:22:14;49.77;;;32.00;;
2998;SDS011;1509;51.964;7.628;2022-12-16T00:24:39;51.57;;;28.87;;
2998;SDS011;1509;51.964;7.628;2022-12-16T00:27:05;40.90;;;29.20;;
2998;SDS011;1509;51.964;7.628;2022-12-16T00:29:30;48.10;;;29.20;;
2998;SDS011;1509;51.964;7.628;2022-12-16T00:31:56;46.50;;;28.13;;
2998;SDS011;1509;51.964;7.628;2022-12-16T00:34:21;42.37;;;27.77;;
2998;SDS011;1509;51.964;7.628;2022-12-16T00:36:50;51.27;;;30.20;;
2998;SDS011;1509;51.964;7.628;2022-12-16T00:39:16;46.30;;;27.47;;
2998;SDS011;1509;51.964;7.628;2022-12-16T00:41:44;44.63;;;26.17;;
2998;SDS011;1509;51.964;7.628;2022-12-16T00:44:11;45.43;;;26.63;;
2998;SDS011;1509;51.964;7.628;2022-12-16T00:46:37;47.87;;;28.57;;
2998;SDS011;1509;51.964;7.628;2022-12-16T00:49:02;43.23;;;24.57;;
2998;SDS011;1509;51.964;7.628;2022-12-16T00:51:28;39.07;;;25.90;;
2998;SDS011;1509;51.964;7.628;2022-12-16T00:53:54;48.40;;;26.57;;
2998;SDS011;1509;51.964;7.628;2022-12-16T00:56:19;49.53;;;27.73;;
2998;SDS011;1509;51.964;7.628;2022-12-16T00:58:45;40.63;;;25.23;;
2998;SDS011;1509;51.964;7.628;2022-12-16T01:01:10;49.50;;;29.00;;
2998;SDS011;1509;51.964;7.628;2022-12-16T01:03:36;50.80;;;28.70;;
2998;SDS011;1509;51.964;7.628;2022-12-16T01:06:09;40.17;;;25.50;;
2998;SDS011;1509;51.964;7.628;2022-12-16T01:08:37;37.60;;;26.40;;
2998;SDS011;1509;51.964;7.628;2022-12-16T01:11:03;51.30;;;27.47;;
2998;SDS011;1509;51.964;7.628;2022-12-16T01:13:29;47.20;;;26.43;;
2998;SDS011;1509;51.964;7.628;2022-12-16T01:15:58;42.17;;;27.90;;
2998;SDS011;1509;51.964;7.628;2022-12-16T01:18:25;43.10;;;29.10;;
2998;SDS011;1509;51.964;7.628;2022-12-16T01:20:50;46.07;;;27.60;;
2998;SDS011;1509;51.964;7.628;2022-12-16T01:23:16;39.43;;;26.27;;
2998;SDS011;1509;51.964;7.628;2022-12-16T01:25:44;42.33;;;27.80;;
2998;SDS011;1509;51.964;7.628;2022-12-16T01:28:15;43.93;;;26.27;;
2998;SDS011;1509;51.964;7.628;2022-12-16T01:30:40;44.83;;;25.50;;
2998;SDS011;1509;51.964;7.628;2022-12-16T01:33:06;38.87;;;27.00;;
2998;SDS011;1509;51.964;7.628;2022-12-16T01:35:31;40.43;;;25.87;;
2998;SDS011;1509;51.964;7.628;2022-12-16T01:37:57;36.70;;;23.47;;
2998;SDS011;1509;51.964;7.628;2022-12-16T01:40:22;45.83;;;27.97;;
2998;SDS011;1509;51.964;7.628;2022-12-16T01:42:49;40.50;;;27.00;;
2998;SDS011;1509;51.964;7.628;2022-12-16T01:45:47;42.03;;;26.77;;
2998;SDS011;1509;51.964;7.628;2022-12-16T01:48:20;40.53;;;26.13;;
2998;SDS011;1509;51.964;7.628;2022-12-16T01:50:57;48.70;;;25.73;;
2998;SDS011;1509;51.964;7.628;2022-12-16T01:53:55;41.20;;;23.83;;
2998;SDS011;1509;51.964;7.628;2022-12-16T01:56:23;34.90;;;21.87;;
2998;SDS011;1509;51.964;7.628;2022-12-16T01:58:53;40.37;;;25.10;;
2998;SDS011;1509;51.964;7.628;2022-12-16T02:01:19;36.67;;;24.20;;
2998;SDS011;1509;51.964;7.628;2022-12-16T02:03:49;39.50;;;25.73;;
2998;SDS011;1509;51.964;7.628;2022-12-16T02:06:18;41.50;;;24.37;;
2998;SDS011;1509;51.964;7.628;2022-12-16T02:08:44;33.97;;;23.03;;
2998;SDS011;1509;51.964;7.628;2022-12-16T02:16:07;37.13;;;24.43;;
2998;SDS011;1509;51.964;7.628;2022-12-16T02:19:00;47.63;;;25.33;;
2998;SDS011;1509;51.964;7.628;2022-12-16T02:21:30;38.73;;;26.47;;
2998;SDS011;1509;51.964;7.628;2022-12-16T02:30:07;49.83;;;26.63;;
2998;SDS011;1509;51.964;7.628;2022-12-16T02:33:07;49.13;;;25.47;;
2998;SDS011;1509;51.964;7.628;2022-12-16T02:35:39;46.73;;;28.07;;
2998;SDS011;1509;51.964;7.628;2022-12-16T02:38:21;39.10;;;25.73;;
2998;SDS011;1509;51.964;7.628;2022-12-16T02:41:15;44.97;;;27.27;;
2998;SDS011;1509;51.964;7.628;2022-12-16T02:46:26;47.87;;;28.17;;
2998;SDS011;1509;51.964;7.628;2022-12-16T02:48:53;39.80;;;25.50;;
2998;SDS011;1509;51.964;7.628;2022-12-16T02:51:19;55.53;;;27.60;;
2998;SDS011;1509;51.964;7.628;2022-12-16T02:53:48;50.70;;;27.33;;
2998;SDS011;1509;51.964;7.628;2022-12-16T02:56:30;49.20;;;28.07;;
2998;SDS011;1509;51.964;7.628;2022-12-16T03:04:31;55.67;;;29.30;;
2998;SDS011;1509;51.964;7.628;2022-12-16T03:07:02;41.83;;;28.30;;
2998;SDS011;1509;51.964;7.628;2022-12-16T03:09:31;55.67;;;25.40;;
2998;SDS011;1509;51.964;7.628;2022-12-16T03:11:59;44.23;;;27.17;;
2998;SDS011;1509;51.964;7.628;2022-12-16T03:14:29;41.30;;;26.20;;
2998;SDS011;1509;51.964;7.628;2022-12-16T03:16:58;45.40;;;27.10;;
2998;SDS011;1509;51.964;7.628;2022-12-16T03:19:24;39.30;;;26.50;;
2998;SDS011;1509;51.964;7.628;2022-12-16T03:22:11;50.23;;;27.30;;
2998;SDS011;1509;51.964;7.628;2022-12-16T03:24:41;44.80;;;27.43;;
2998;SDS011;1509;51.964;7.628;2022-12-16T03:35:04;41.57;;;28.87;;
2998;SDS011;1509;51.964;7.628;2022-12-16T03:37:43;47.87;;;28.40;;
2998;SDS011;1509;51.964;7.628;2022-12-16T03:40:12;50.97;;;30.13;;
2998;SDS011;1509;51.964;7.628;2022-12-16T03:42:39;43.20;;;27.97;;
2998;SDS011;1509;51.964;7.628;2022-12-16T03:45:06;42.80;;;28.20;;
2998;SDS011;1509;51.964;7.628;2022-12-16T03:47:39;42.53;;;25.00;;
2998;SDS011;1509;51.964;7.628;2022-12-16T03:50:05;40.70;;;25.90;;
2998;SDS011;1509;51.964;7.628;2022-12-16T03:52:31;36.67;;;24.40;;
2998;SDS011;1509;51.964;7.628;2022-12-16T03:54:57;38.10;;;25.67;;
2998;SDS011;1509;51.964;7.628;2022-12-16T03:57:22;38.77;;;25.93;;
2998;SDS011;1509;51.964;7.628;2022-12-16T03:59:48;42.67;;;23.37;;
2998;SDS011;1509;51.964;7.628;2022-12-16T04:02:13;37.03;;;25.50;;
2998;SDS011;1509;51.964;7.628;2022-12-16T04:04:39;44.63;;;25.80;;
2998;SDS011;1509;51.964;7.628;2022-12-16T04:07:05;40.63;;;26.97;;
2998;SDS011;1509;51.964;7.628;2022-12-16T04:09:49;47.27;;;25.10;;
2998;SDS011;1509;51.964;7.628;2022-12-16T04:12:15;46.13;;;28.23;;
2998;SDS011;1509;51.964;7.628;2022-12-16T04:15:00;41.50;;;24.80;;
2998;SDS011;1509;51.964;7.628;2022-12-16T04:17:47;41.50;;;25.43;;
2998;SDS011;1509;51.964;7.628;2022-12-16T04:20:32;37.27;;;23.80;;
2998;SDS011;1509;51.964;7.628;2022-12-16T04:23:22;34.87;;;26.47;;
2998;SDS011;1509;51.964;7.628;2022-12-16T04:26:08;45.20;;;25.83;;
2998;SDS011;1509;51.964;7.628;2022-12-16T04:28:34;35.97;;;24.93;;
2998;SDS011;1509;51.964;7.628;2022-12-16T04:31:00;38.27;;;25.57;;
2998;SDS011;1509;51.964;7.628;2022-12-16T04:33:26;46.10;;;25.10;;
2998;SDS011;1509;51.964;7.628;2022-12-16T04:36:10;44.53;;;24.90;;
2998;SDS011;1509;51.964;7.628;2022-12-16T04:38:54;37.37;;;24.17;;
2998;SDS011;1509;51.964;7.628;2022-12-16T04:41:38;40.20;;;25.87;;
2998;SDS011;1509;51.964;7.628;2022-12-16T04:44:22;48.50;;;24.10;;
2998;SDS011;1509;51.964;7.628;2022-12-16T04:47:06;37.00;;;24.33;;
2998;SDS011;1509;51.964;7.628;2022-12-16T04:49:50;45.57;;;25.63;;
2998;SDS011;1509;51.964;7.628;2022-12-16T04:52:34;38.60;;;24.77;;
2998;SDS011;1509;51.964;7.628;2022-12-16T04:55:18;38.43;;;23.47;;
2998;SDS011;1509;51.964;7.628;2022-12-16T04:58:02;43.73;;;22.67;;
2998;SDS011;1509;51.964;7.628;2022-12-16T05:00:47;39.93;;;24.83;;
2998;SDS011;1509;51.964;7.628;2022-12-16T05:03:32;42.10;;;27.90;;
2998;SDS011;1509;51.964;7.628;2022-12-16T05:06:27;37.60;;;24.67;;
2998;SDS011;1509;51.964;7.628;2022-12-16T05:09:12;54.00;;;26.97;;
2998;SDS011;1509;51.964;7.628;2022-12-16T05:12:00;42.53;;;26.40;;
2998;SDS011;1509;51.964;7.628;2022-12-16T05:14:44;47.07;;;26.57;;
2998;SDS011;1509;51.964;7.628;2022-12-16T05:17:29;41.33;;;25.90;;
2998;SDS011;1509;51.964;7.628;2022-12-16T05:20:13;42.83;;;26.10;;
2998;SDS011;1509;51.964;7.628;2022-12-16T05:22:57;43.90;;;26.53;;
2998;SDS011;1509;51.964;7.628;2022-12-16T05:25:41;42.80;;;27.37;;
2998;SDS011;1509;51.964;7.628;2022-12-16T05:28:26;47.47;;;25.17;;
2998;SDS011;1509;51.964;7.628;2022-12-16T05:31:10;42.23;;;25.37;;
2998;SDS011;1509;51.964;7.628;2022-12-16T05:33:54;50.17;;;27.00;;
2998;SDS011;1509;51.964;7.628;2022-12-16T05:36:38;43.73;;;25.70;;
2998;SDS011;1509;51.964;7.628;2022-12-16T05:39:23;52.10;;;26.90;;
2998;SDS011;1509;51.964;7.628;2022-12-16T05:42:07;50.77;;;24.30;;
2998;SDS011;1509;51.964;7.628;2022-12-16T05:44:51;42.33;;;23.70;;
2998;SDS011;1509;51.964;7.628;2022-12-16T05:47:35;44.20;;;23.90;;
2998;SDS011;1509;51.964;7.628;2022-12-16T05:50:19;36.67;;;22.73;;
2998;SDS011;1509;51.964;7.628;2022-12-16T05:53:03;42.27;;;27.87;;
2998;SDS011;1509;51.964;7.628;2022-12-16T05:55:47;43.50;;;27.93;;
2998;SDS011;1509;51.964;7.628;2022-12-16T05:58:31;48.57;;;25.77;;
2998;SDS011;1509;51.964;7.628;2022-12-16T06:01:15;45.43;;;25.37;;
2998;SDS011;1509;51.964;7.628;2022-12-16T06:04:07;36.67;;;24.90;;
2998;SDS011;1509;51.964;7.628;2022-12-16T06:06:51;42.27;;;24.43;;
2998;SDS011;1509;51.964;7.628;2022-12-16T06:09:35;45.10;;;27.77;;
2998;SDS011;1509;51.964;7.628;2022-12-16T06:12:19;49.40;;;26.90;;
2998;SDS011;1509;51.964;7.628;2022-12-16T06:15:03;41.33;;;25.80;;
2998;SDS011;1509;51.964;7.628;2022-12-16T06:17:50;52.97;;;28.27;;
2998;SDS011;1509;51.964;7.628;2022-12-16T06:20:35;46.67;;;28.00;;
2998;SDS011;1509;51.964;7.628;2022-12-16T06:23:19;50.57;;;28.27;;
2998;SDS011;1509;51.964;7.628;2022-12-16T06:26:04;52.60;;;28.63;;
2998;SDS011;1509;51.964;7.628;2022-12-16T06:28:49;43.23;;;26.93;;
2998;SDS011;1509;51.964;7.628;2022-12-16T06:31:33;52.40;;;29.40;;
2998;SDS011;1509;51.964;7.628;2022-12-16T06:34:17;47.73;;;26.77;;
2998;SDS011;1509;51.964;7.628;2022-12-16T06:37:01;49.60;;;29.60;;
2998;SDS011;1509;51.964;7.628;2022-12-16T06:39:45;50.67;;;29.37;;
2998;SDS011;1509;51.964;7.628;2022-12-16T06:42:29;47.50;;;28.90;;
2998;SDS011;1509;51.964;7.628;2022-12-16T06:45:13;39.23;;;26.57;;
2998;SDS011;1509;51.964;7.628;2022-12-16T06:47:57;42.80;;;28.07;;
2998;SDS011;1509;51.964;7.628;2022-12-16T06:50:41;43.77;;;27.40;;
2998;SDS011;1509;51.964;7.628;2022-12-16T06:53:25;44.97;;;27.97;;
2998;SDS011;1509;51.964;7.628;2022-12-16T06:56:09;51.20;;;28.37;;
2998;SDS011;1509;51.964;7.628;2022-12-16T06:58:54;41.73;;;26.13;;
2998;SDS011;1509;51.964;7.628;2022-12-16T07:01:37;46.50;;;26.10;;
2998;SDS011;1509;51.964;7.628;2022-12-16T07:04:22;40.40;;;26.90;;
2998;SDS011;1509;51.964;7.628;2022-12-16T07:07:06;46.50;;;26.37;;
2998;SDS011;1509;51.964;7.628;2022-12-16T07:09:50;44.23;;;25.57;;
2998;SDS011;1509;51.964;7.628;2022-12-16T07:12:37;47.70;;;29.40;;
2998;SDS011;1509;51.964;7.628;2022-12-16T07:15:21;45.80;;;28.13;;
2998;SDS011;1509;51.964;7.628;2022-12-16T07:18:05;43.67;;;28.40;;
2998;SDS011;1509;51.964;7.628;2022-12-16T07:20:49;40.77;;;27.97;;
2998;SDS011;1509;51.964;7.628;2022-12-16T07:23:33;46.93;;;31.30;;
2998;SDS011;1509;51.964;7.628;2022-12-16T07:26:17;51.30;;;28.97;;
2998;SDS011;1509;51.964;7.628;2022-12-16T07:29:02;49.17;;;30.13;;
2998;SDS011;1509;51.964;7.628;2022-12-16T07:31:46;47.47;;;28.83;;
2998;SDS011;1509;51.964;7.628;2022-12-16T07:34:30;46.03;;;28.43;;
2998;SDS011;1509;51.964;7.628;2022-12-16T07:37:14;55.40;;;32.43;;
2998;SDS011;1509;51.964;7.628;2022-12-16T07:39:58;42.00;;;27.27;;
2998;SDS011;1509;51.964;7.628;2022-12-16T07:42:42;51.70;;;28.67;;
2998;SDS011;1509;51.964;7.628;2022-12-16T07:45:29;43.47;;;29.30;;
2998;SDS011;1509;51.964;7.628;2022-12-16T07:48:13;52.40;;;29.77;;
2998;SDS011;1509;51.964;7.628;2022-12-16T07:50:59;45.40;;;27.27;;
2998;SDS011;1509;51.964;7.628;2022-12-16T07:53:43;41.43;;;28.77;;
2998;SDS011;1509;51.964;7.628;2022-12-16T07:56:27;51.20;;;32.50;;
2998;SDS011;1509;51.964;7.628;2022-12-16T07:59:11;49.27;;;30.97;;
2998;SDS011;1509;51.964;7.628;2022-12-16T08:01:55;41.07;;;27.67;;
2998;SDS011;1509;51.964;7.628;2022-12-16T08:04:39;52.60;;;32.10;;
2998;SDS011;1509;51.964;7.628;2022-12-16T08:07:23;49.47;;;27.67;;
2998;SDS011;1509;51.964;7.628;2022-12-16T08:10:08;45.73;;;27.60;;
2998;SDS011;1509;51.964;7.628;2022-12-16T08:13:01;41.53;;;26.27;;
2998;SDS011;1509;51.964;7.628;2022-12-16T08:15:47;50.23;;;29.10;;
2998;SDS011;1509;51.964;7.628;2022-12-16T08:18:32;50.83;;;28.07;;
2998;SDS011;1509;51.964;7.628;2022-12-16T08:21:17;48.60;;;28.57;;
2998;SDS011;1509;51.964;7.628;2022-12-16T08:24:01;42.17;;;27.53;;
2998;SDS011;1509;51.964;7.628;2022-12-16T08:26:45;40.43;;;27.17;;
2998;SDS011;1509;51.964;7.628;2022-12-16T08:29:29;39.77;;;25.77;;
2998;SDS011;1509;51.964;7.628;2022-12-16T08:32:14;40.33;;;27.00;;
2998;SDS011;1509;51.964;7.628;2022-12-16T08:34:59;45.53;;;26.77;;
2998;SDS011;1509;51.964;7.628;2022-12-16T08:37:44;48.87;;;28.50;;
2998;SDS011;1509;51.964;7.628;2022-12-16T08:40:28;39.90;;;24.20;;
2998;SDS011;1509;51.964;7.628;2022-12-16T08:43:12;41.83;;;24.60;;
2998;SDS011;1509;51.964;7.628;2022-12-16T08:45:58;50.87;;;27.10;;
2998;SDS011;1509;51.964;7.628;2022-12-16T08:48:43;47.73;;;27.80;;
2998;SDS011;1509;51.964;7.628;2022-12-16T08:51:27;40.93;;;24.80;;
2998;SDS011;1509;51.964;7.628;2022-12-16T08:54:12;42.77;;;28.80;;
2998;SDS011;1509;51.964;7.628;2022-12-16T08:56:56;45.43;;;28.27;;
2998;SDS011;1509;51.964;7.628;2022-12-16T08:59:40;40.70;;;26.37;;
2998;SDS011;1509;51.964;7.628;2022-12-16T09:02:24;40.40;;;26.90;;
2998;SDS011;1509;51.964;7.628;2022-12-16T09:05:08;40.90;;;27.30;;
2998;SDS011;1509;51.964;7.628;2022-12-16T09:07:58;44.20;;;26.47;;
2998;SDS011;1509;51.964;7.628;2022-12-16T09:10:46;40.40;;;26.83;;
2998;SDS011;1509;51.964;7.628;2022-12-16T09:13:30;46.63;;;26.37;;
2998;SDS011;1509;51.964;7.628;2022-12-16T09:16:25;41.60;;;26.07;;
2998;SDS011;1509;51.964;7.628;2022-12-16T09:19:10;40.60;;;27.70;;
2998;SDS011;1509;51.964;7.628;2022-12-16T09:21:54;57.23;;;29.67;;
2998;SDS011;1509;51.964;7.628;2022-12-16T09:24:38;53.73;;;26.00;;
2998;SDS011;1509;51.964;7.628;2022-12-16T09:27:22;43.10;;;27.20;;
2998;SDS011;1509;51.964;7.628;2022-12-16T09:30:06;42.10;;;27.57;;
2998;SDS011;1509;51.964;7.628;2022-12-16T09:32:51;44.60;;;27.00;;
2998;SDS011;1509;51.964;7.628;2022-12-16T09:35:35;45.40;;;27.63;;
2998;SDS011;1509;51.964;7.628;2022-12-16T09:38:19;43.53;;;27.37;;
2998;SDS011;1509;51.964;7.628;2022-12-16T09:41:13;45.07;;;27.97;;
2998;SDS011;1509;51.964;7.628;2022-12-16T09:44:23;43.57;;;28.20;;
2998;SDS011;1509;51.964;7.628;2022-12-16T09:47:25;49.10;;;28.30;;
2998;SDS011;1509;51.964;7.628;2022-12-16T09:50:23;48.27;;;28.10;;
2998;SDS011;1509;51.964;7.628;2022-12-16T09:53:09;39.37;;;26.93;;
2998;SDS011;1509;51.964;7.628;2022-12-16T09:55:58;49.63;;;29.77;;
2998;SDS011;1509;51.964;7.628;2022-12-16T09:58:47;39.23;;;26.47;;
2998;SDS011;1509;51.964;7.628;2022-12-16T10:01:37;37.23;;;25.33;;
2998;SDS011;1509;51.964;7.628;2022-12-16T10:04:23;46.03;;;27.30;;
2998;SDS011;1509;51.964;7.628;2022-12-16T10:07:09;41.50;;;26.73;;
2998;SDS011;1509;51.964;7.628;2022-12-16T10:12:56;43.43;;;27.73;;
2998;SDS011;1509;51.964;7.628;2022-12-16T10:21:35;47.27;;;28.47;;
2998;SDS011;1509;51.964;7.628;2022-12-16T10:24:40;46.33;;;28.30;;
2998;SDS011;1509;51.964;7.628;2022-12-16T10:27:33;46.73;;;28.30;;
2998;SDS011;1509;51.964;7.628;2022-12-16T10:30:25;47.43;;;27.97;;
2998;SDS011;1509;51.964;7.628;2022-12-16T10:33:10;49.13;;;28.27;;
2998;SDS011;1509;51.964;7.628;2022-12-16T10:35:57;42.60;;;28.10;;
2998;SDS011;1509;51.964;7.628;2022-12-16T10:38:51;41.77;;;30.00;;
2998;SDS011;1509;51.964;7.628;2022-12-16T10:41:39;47.20;;;28.57;;
2998;SDS011;1509;51.964;7.628;2022-12-16T10:44:30;49.87;;;31.00;;
2998;SDS011;1509;51.964;7.628;2022-12-16T10:47:42;45.17;;;29.37;;
2998;SDS011;1509;51.964;7.628;2022-12-16T10:50:26;42.83;;;26.50;;
2998;SDS011;1509;51.964;7.628;2022-12-16T10:59:07;46.20;;;29.00;;
2998;SDS011;1509;51.964;7.628;2022-12-16T11:02:15;53.60;;;28.60;;
2998;SDS011;1509;51.964;7.628;2022-12-16T11:05:21;49.67;;;31.20;;
2998;SDS011;1509;51.964;7.628;2022-12-16T11:08:07;56.00;;;30.03;;
2998;SDS011;1509;51.964;7.628;2022-12-16T11:11:14;49.20;;;30.60;;
2998;SDS011;1509;51.964;7.628;2022-12-16T11:17:25;39.70;;;28.20;;
2998;SDS011;1509;51.964;7.628;2022-12-16T11:29:08;49.93;;;30.67;;
2998;SDS011;1509;51.964;7.628;2022-12-16T11:32:19;46.60;;;27.90;;
2998;SDS011;1509;51.964;7.628;2022-12-16T11:35:09;54.70;;;30.30;;
2998;SDS011;1509;51.964;7.628;2022-12-16T11:38:01;36.87;;;28.43;;
2998;SDS011;1509;51.964;7.628;2022-12-16T11:40:49;42.50;;;30.53;;
2998;SDS011;1509;51.964;7.628;2022-12-16T11:43:35;44.57;;;30.30;;
2998;SDS011;1509;51.964;7.628;2022-12-16T11:46:29;41.03;;;30.13;;
2998;SDS011;1509;51.964;7.628;2022-12-16T11:49:23;44.80;;;30.33;;
2998;SDS011;1509;51.964;7.628;2022-12-16T11:52:12;53.20;;;30.20;;
2998;SDS011;1509;51.964;7.628;2022-12-16T12:01:31;46.13;;;29.33;;
2998;SDS011;1509;51.964;7.628;2022-12-16T12:04:22;47.07;;;28.47;;
2998;SDS011;1509;51.964;7.628;2022-12-16T12:10:15;39.47;;;28.23;;
2998;SDS011;1509;51.964;7.628;2022-12-16T12:13:30;42.00;;;28.67;;
2998;SDS011;1509;51.964;7.628;2022-12-16T12:16:53;44.80;;;28.90;;
2998;SDS011;1509;51.964;7.628;2022-12-16T12:22:36;36.50;;;27.27;;
2998;SDS011;1509;51.964;7.628;2022-12-16T12:25:42;45.10;;;26.70;;
2998;SDS011;1509;51.964;7.628;2022-12-16T12:31:58;44.57;;;24.40;;
2998;SDS011;1509;51.964;7.628;2022-12-16T12:34:49;40.70;;;26.70;;
2998;SDS011;1509;51.964;7.628;2022-12-16T12:38:16;41.20;;;26.60;;
2998;SDS011;1509;51.964;7.628;2022-12-16T12:41:03;37.00;;;24.97;;
2998;SDS011;1509;51.964;7.628;2022-12-16T12:44:02;31.63;;;21.00;;
2998;SDS011;1509;51.964;7.628;2022-12-16T12:47:08;36.17;;;22.67;;
2998;SDS011;1509;51.964;7.628;2022-12-16T12:50:01;32.17;;;23.57;;
2998;SDS011;1509;51.964;7.628;2022-12-16T12:53:05;33.60;;;25.37;;
2998;SDS011;1509;51.964;7.628;2022-12-16T12:56:00;28.80;;;21.30;;
2998;SDS011;1509;51.964;7.628;2022-12-16T12:59:01;38.90;;;25.63;;
2998;SDS011;1509;51.964;7.628;2022-12-16T13:01:54;41.60;;;26.20;;
2998;SDS011;1509;51.964;7.628;2022-12-16T13:04:39;36.00;;;23.73;;
2998;SDS011;1509;51.964;7.628;2022-12-16T13:07:24;39.67;;;24.83;;
2998;SDS011;1509;51.964;7.628;2022-12-16T13:15:58;34.27;;;23.50;;
2998;SDS011;1509;51.964;7.628;2022-12-16T13:18:43;35.37;;;24.23;;
2998;SDS011;1509;51.964;7.628;2022-12-16T13:27:23;39.90;;;23.97;;
2998;SDS011;1509;51.964;7.628;2022-12-16T13:32:57;38.57;;;23.53;;
2998;SDS011;1509;51.964;7.628;2022-12-16T13:35:53;39.30;;;24.13;;
2998;SDS011;1509;51.964;7.628;2022-12-16T13:38:45;37.57;;;23.00;;
2998;SDS011;1509;51.964;7.628;2022-12-16T13:50:43;42.97;;;24.60;;
2998;SDS011;1509;51.964;7.628;2022-12-16T13:53:46;32.93;;;22.90;;
2998;SDS011;1509;51.964;7.628;2022-12-16T13:56:43;37.20;;;21.87;;
2998;SDS011;1509;51.964;7.628;2022-12-16T13:59:31;36.80;;;21.77;;
2998;SDS011;1509;51.964;7.628;2022-12-16T14:02:26;39.17;;;24.40;;
2998;SDS011;1509;51.964;7.628;2022-12-16T14:05:33;39.03;;;23.13;;
2998;SDS011;1509;51.964;7.628;2022-12-16T14:08:21;40.73;;;23.50;;
2998;SDS011;1509;51.964;7.628;2022-12-16T14:11:12;34.93;;;22.40;;
2998;SDS011;1509;51.964;7.628;2022-12-16T14:14:07;46.97;;;23.30;;
2998;SDS011;1509;51.964;7.628;2022-12-16T14:16:54;36.13;;;23.50;;
2998;SDS011;1509;51.964;7.628;2022-12-16T14:25:48;33.37;;;21.50;;
2998;SDS011;1509;51.964;7.628;2022-12-16T14:28:40;38.73;;;22.83;;
2998;SDS011;1509;51.964;7.628;2022-12-16T14:31:37;37.40;;;21.67;;
2998;SDS011;1509;51.964;7.628;2022-12-16T14:34:37;37.43;;;22.83;;
2998;SDS011;1509;51.964;7.628;2022-12-16T14:37:35;41.63;;;20.33;;
2998;SDS011;1509;51.964;7.628;2022-12-16T14:40:24;34.40;;;20.80;;
2998;SDS011;1509;51.964;7.628;2022-12-16T14:43:12;29.67;;;19.57;;
2998;SDS011;1509;51.964;7.628;2022-12-16T14:46:27;37.33;;;19.10;;
2998;SDS011;1509;51.964;7.628;2022-12-16T14:55:05;37.00;;;20.67;;
2998;SDS011;1509;51.964;7.628;2022-12-16T14:58:10;38.13;;;22.87;;
2998;SDS011;1509;51.964;7.628;2022-12-16T15:01:16;34.13;;;24.23;;
2998;SDS011;1509;51.964;7.628;2022-12-16T15:04:05;39.13;;;25.67;;
2998;SDS011;1509;51.964;7.628;2022-12-16T15:06:55;41.33;;;26.03;;
2998;SDS011;1509;51.964;7.628;2022-12-16T15:09:44;43.27;;;28.50;;
2998;SDS011;1509;51.964;7.628;2022-12-16T15:12:31;47.13;;;29.50;;
2998;SDS011;1509;51.964;7.628;2022-12-16T15:15:43;50.73;;;27.80;;
2998;SDS011;1509;51.964;7.628;2022-12-16T15:18:31;47.33;;;28.90;;
2998;SDS011;1509;51.964;7.628;2022-12-16T15:21:19;44.07;;;28.00;;
2998;SDS011;1509;51.964;7.628;2022-12-16T15:24:12;44.10;;;27.60;;
2998;SDS011;1509;51.964;7.628;2022-12-16T15:27:14;48.87;;;28.20;;
2998;SDS011;1509;51.964;7.628;2022-12-16T15:33:16;48.63;;;28.90;;
2998;SDS011;1509;51.964;7.628;2022-12-16T15:36:02;38.30;;;26.10;;
2998;SDS011;1509;51.964;7.628;2022-12-16T15:38:47;44.33;;;28.80;;
2998;SDS011;1509;51.964;7.628;2022-12-16T15:41:32;43.17;;;29.50;;
2998;SDS011;1509;51.964;7.628;2022-12-16T15:44:19;46.67;;;32.37;;
2998;SDS011;1509;51.964;7.628;2022-12-16T15:47:15;47.37;;;28.80;;
2998;SDS011;1509;51.964;7.628;2022-12-16T15:50:04;47.43;;;30.57;;
2998;SDS011;1509;51.964;7.628;2022-12-16T15:52:49;45.97;;;31.63;;
2998;SDS011;1509;51.964;7.628;2022-12-16T15:55:34;44.13;;;30.53;;
2998;SDS011;1509;51.964;7.628;2022-12-16T15:58:32;56.33;;;31.70;;
2998;SDS011;1509;51.964;7.628;2022-12-16T16:01:22;50.70;;;30.87;;
2998;SDS011;1509;51.964;7.628;2022-12-16T16:04:19;51.93;;;33.80;;
2998;SDS011;1509;51.964;7.628;2022-12-16T16:07:29;49.63;;;33.10;;
2998;SDS011;1509;51.964;7.628;2022-12-16T16:10:22;48.67;;;30.40;;
2998;SDS011;1509;51.964;7.628;2022-12-16T16:13:07;56.43;;;32.03;;
2998;SDS011;1509;51.964;7.628;2022-12-16T16:15:52;48.40;;;31.20;;
2998;SDS011;1509;51.964;7.628;2022-12-16T16:18:37;51.73;;;35.73;;
2998;SDS011;1509;51.964;7.628;2022-12-16T16:21:22;55.27;;;33.33;;
2998;SDS011;1509;51.964;7.628;2022-12-16T16:24:06;53.20;;;31.97;;
2998;SDS011;1509;51.964;7.628;2022-12-16T16:26:54;42.40;;;32.50;;
2998;SDS011;1509;51.964;7.628;2022-12-16T16:29:41;52.60;;;31.03;;
2998;SDS011;1509;51.964;7.628;2022-12-16T16:32:26;50.73;;;32.80;;
2998;SDS011;1509;51.964;7.628;2022-12-16T16:35:10;53.73;;;32.70;;
2998;SDS011;1509;51.964;7.628;2022-12-16T16:37:54;46.30;;;31.97;;
2998;SDS011;1509;51.964;7.628;2022-12-16T16:40:39;43.73;;;29.37;;
2998;SDS011;1509;51.964;7.628;2022-12-16T16:43:25;50.63;;;28.70;;
2998;SDS011;1509;51.964;7.628;2022-12-16T16:49:04;48.67;;;31.90;;
2998;SDS011;1509;51.964;7.628;2022-12-16T16:52:02;52.47;;;32.67;;
2998;SDS011;1509;51.964;7.628;2022-12-16T16:54:46;52.73;;;31.47;;
2998;SDS011;1509;51.964;7.628;2022-12-16T16:57:31;60.07;;;35.23;;
2998;SDS011;1509;51.964;7.628;2022-12-16T17:00:17;50.23;;;31.47;;
2998;SDS011;1509;51.964;7.628;2022-12-16T17:03:01;68.37;;;40.30;;
2998;SDS011;1509;51.964;7.628;2022-12-16T17:05:45;47.70;;;34.20;;
2998;SDS011;1509;51.964;7.628;2022-12-16T17:08:29;49.00;;;34.30;;
2998;SDS011;1509;51.964;7.628;2022-12-16T17:11:20;57.67;;;36.33;;
2998;SDS011;1509;51.964;7.628;2022-12-16T17:14:05;53.30;;;33.57;;
2998;SDS011;1509;51.964;7.628;2022-12-16T17:16:55;63.57;;;35.33;;
2998;SDS011;1509;51.964;7.628;2022-12-16T17:19:39;54.00;;;34.00;;
2998;SDS011;1509;51.964;7.628;2022-12-16T17:22:23;56.40;;;32.93;;
2998;SDS011;1509;51.964;7.628;2022-12-16T17:25:07;50.83;;;32.27;;
2998;SDS011;1509;51.964;7.628;2022-12-16T17:27:51;60.93;;;34.73;;
2998;SDS011;1509;51.964;7.628;2022-12-16T17:30:35;59.87;;;35.43;;
2998;SDS011;1509;51.964;7.628;2022-12-16T17:33:19;53.30;;;36.03;;
2998;SDS011;1509;51.964;7.628;2022-12-16T17:36:03;66.23;;;40.10;;
2998;SDS011;1509;51.964;7.628;2022-12-16T17:38:48;59.90;;;38.43;;
2998;SDS011;1509;51.964;7.628;2022-12-16T17:41:33;63.47;;;40.50;;
2998;SDS011;1509;51.964;7.628;2022-12-16T17:44:17;64.43;;;40.47;;
2998;SDS011;1509;51.964;7.628;2022-12-16T17:47:02;66.07;;;39.17;;
2998;SDS011;1509;51.964;7.628;2022-12-16T17:49:46;58.43;;;38.90;;
2998;SDS011;1509;51.964;7.628;2022-12-16T17:52:31;52.60;;;36.80;;
2998;SDS011;1509;51.964;7.628;2022-12-16T17:55:15;56.53;;;38.53;;
2998;SDS011;1509;51.964;7.628;2022-12-16T17:57:59;63.30;;;40.83;;
2998;SDS011;1509;51.964;7.628;2022-12-16T18:00:43;62.90;;;42.00;;
2998;SDS011;1509;51.964;7.628;2022-12-16T18:03:27;70.90;;;38.27;;
2998;SDS011;1509;51.964;7.628;2022-12-16T18:06:11;62.33;;;37.10;;
2998;SDS011;1509;51.964;7.628;2022-12-16T18:08:55;64.97;;;37.37;;
2998;SDS011;1509;51.964;7.628;2022-12-16T18:11:39;67.10;;;40.20;;
2998;SDS011;1509;51.964;7.628;2022-12-16T18:14:23;70.43;;;43.57;;
2998;SDS011;1509;51.964;7.628;2022-12-16T18:17:08;72.73;;;41.90;;